Time;durP1;ratioP1;P1;durP2;ratioP2;P2;SDS_P1;SDS_P2;PMS_P1;PMS_P2;Temp;Humidity;BMP_temperature;BMP_pressure;BME280_temperature;BME280_humidity;BME280_pressure;Samples;Min_cycle;Max_cycle;Signal;HPM_P1;HPM_P2
2024/01/19 00:01:18;;;;;;;27.50;18.63;;;8.80;99.90;;;;;;4979712;28;20389;-78
2024/01/19 00:04:00;;;;;;;31.27;21.08;;;8.80;99.90;;;;;;4962186;28;20031;-77
2024/01/19 00:06:31;;;;;;;28.55;18.83;;;8.80;99.90;;;;;;4981502;28;20030;-77
2024/01/19 00:09:53;;;;;;;29.27;19.52;;;8.80;99.90;;;;;;4977407;28;20402;-78
2024/01/19 00:12:21;;;;;;;27.33;16.77;;;8.80;99.90;;;;;;4965030;28;20511;-78
2024/01/19 00:15:23;;;;;;;26.85;18.70;;;8.80;99.90;;;;;;4965913;28;20030;-77
2024/01/19 00:18:30;;;;;;;;;;;;;;;;;;;;;
2024/01/19 00:21:23;;;;;;;25.95;17.67;;;8.80;99.90;;;;;;4978662;28;20041;-77
2024/01/19 00:24:10;;;;;;;24.35;16.17;;;8.80;99.90;;;;;;4976682;28;20081;-76
2024/01/19 00:26:47;;;;;;;25.80;17.05;;;8.80;99.90;;;;;;4966459;28;20038;-77
2024/01/19 00:32:14;;;;;;;28.83;18.38;;;8.80;99.90;;;;;;4958140;29;20053;-78
2024/01/19 00:38:03;;;;;;;29.15;20.58;;;8.80;99.90;;;;;;4956393;28;20059;-77
2024/01/19 00:40:35;;;;;;;30.88;19.95;;;8.80;99.90;;;;;;4957867;28;20481;-78
2024/01/19 00:43:57;;;;;;;28.98;18.10;;;8.90;99.90;;;;;;4957724;28;20095;-78
2024/01/19 00:46:55;;;;;;;26.77;17.98;;;8.90;99.90;;;;;;4944220;28;20038;-77
2024/01/19 00:53:54;;;;;;;29.33;18.02;;;9.00;99.90;;;;;;4959963;28;20097;-78
2024/01/19 00:57:10;;;;;;;30.73;18.83;;;9.00;99.90;;;;;;4960355;28;20034;-78
2024/01/19 00:59:55;;;;;;;30.13;19.98;;;9.10;99.90;;;;;;4957757;29;20393;-78
2024/01/19 01:02:34;;;;;;;28.77;19.38;;;9.00;99.90;;;;;;4954610;28;20037;-77
2024/01/19 01:05:20;;;;;;;34.58;21.33;;;9.10;99.90;;;;;;4978998;28;20027;-78
2024/01/19 01:07:55;;;;;;;29.00;18.92;;;9.00;99.90;;;;;;4995364;28;20392;-77
2024/01/19 01:11:21;;;;;;;32.00;19.92;;;8.90;99.90;;;;;;4958502;28;20101;-78
2024/01/19 01:13:57;;;;;;;27.90;18.52;;;8.90;99.90;;;;;;4939523;29;20031;-77
2024/01/19 01:16:33;;;;;;;25.85;17.52;;;8.90;99.90;;;;;;4940147;29;20039;-78
2024/01/19 01:22:47;;;;;;;28.83;18.20;;;8.90;99.90;;;;;;4974930;28;20108;-78
2024/01/19 01:25:41;;;;;;;25.83;16.65;;;8.90;99.90;;;;;;4976317;28;20053;-78
2024/01/19 01:28:17;;;;;;;27.15;16.88;;;8.90;99.90;;;;;;4975063;28;20038;-78
2024/01/19 01:34:17;;;;;;;30.58;18.00;;;8.90;99.90;;;;;;4975137;28;20038;-76
2024/01/19 01:36:59;;;;;;;29.50;19.73;;;9.00;99.90;;;;;;4958202;28;20058;-76
2024/01/19 01:40:22;;;;;;;28.02;18.58;;;9.00;99.90;;;;;;4967775;28;20061;-76
2024/01/19 02:27:09;;;;;;;30.85;19.13;;;9.00;99.90;;;;;;4976230;28;20077;-76
2024/01/19 02:29:41;;;;;;;31.88;18.30;;;9.00;99.90;;;;;;4960486;28;20061;-76
2024/01/19 02:32:22;;;;;;;33.95;19.42;;;9.00;99.90;;;;;;4959674;28;20480;-77
2024/01/19 02:52:55;;;;;;;35.00;19.05;;;9.00;99.90;;;;;;4966666;28;20121;-76
2024/01/19 02:55:24;;;;;;;37.13;20.13;;;9.10;99.90;;;;;;4963017;28;20444;-76
2024/01/19 02:58:39;;;;;;;42.15;23.65;;;9.10;99.90;;;;;;4964749;28;20026;-75
2024/01/19 03:04:40;;;;;;;38.58;21.05;;;9.10;99.90;;;;;;4975121;28;20515;-76
2024/01/19 03:07:43;;;;;;;36.75;20.83;;;9.10;99.90;;;;;;4959296;28;20408;-76
2024/01/19 03:10:17;;;;;;;39.05;20.67;;;9.10;99.90;;;;;;4981989;28;20508;-76
2024/01/19 03:12:58;;;;;;;38.63;21.00;;;9.10;99.90;;;;;;4958363;28;20031;-76
2024/01/19 03:15:43;;;;;;;41.10;22.20;;;9.10;99.90;;;;;;4949779;28;20031;-76
2024/01/19 03:18:10;;;;;;;45.05;23.02;;;9.10;99.90;;;;;;4961295;28;20038;-76
2024/01/19 03:21:04;;;;;;;44.95;22.85;;;9.10;99.90;;;;;;4963001;28;20041;-77
2024/01/19 03:23:31;;;;;;;47.05;23.33;;;9.10;99.90;;;;;;4959613;28;20054;-76
2024/01/19 03:26:03;;;;;;;45.05;21.77;;;9.10;99.90;;;;;;4959072;28;20057;-76
2024/01/19 03:29:01;;;;;;;40.47;21.83;;;9.10;99.90;;;;;;4958807;28;20074;-76
2024/01/19 03:31:26;;;;;;;40.25;21.77;;;9.10;99.90;;;;;;4963504;28;20030;-76
2024/01/19 03:33:52;;;;;;;42.95;21.85;;;9.10;99.90;;;;;;4990168;28;20040;-76
2024/01/19 03:36:17;;;;;;;42.20;21.58;;;9.10;99.90;;;;;;4986489;28;20149;-76
2024/01/19 03:38:43;;;;;;;45.20;24.17;;;9.10;99.90;;;;;;4975969;28;20039;-76
2024/01/19 03:41:09;;;;;;;42.72;22.77;;;9.10;99.90;;;;;;4979907;28;20093;-76
2024/01/19 03:43:34;;;;;;;42.90;22.30;;;9.10;99.90;;;;;;4976312;28;20544;-76
2024/01/19 03:46:00;;;;;;;42.70;22.13;;;9.10;99.90;;;;;;4975939;28;20369;-76
2024/01/19 03:48:26;;;;;;;36.90;19.75;;;9.10;99.90;;;;;;4975824;28;20038;-76
2024/01/19 03:50:51;;;;;;;43.47;22.35;;;9.10;99.90;;;;;;4975679;28;20078;-75
2024/01/19 03:53:17;;;;;;;41.97;22.92;;;9.10;99.90;;;;;;4975812;28;20030;-76
2024/01/19 03:55:43;;;;;;;44.40;22.52;;;9.10;99.90;;;;;;4981588;28;20049;-76
2024/01/19 03:58:08;;;;;;;39.95;21.15;;;9.10;99.90;;;;;;4980637;28;20034;-76
2024/01/19 04:00:34;;;;;;;38.80;21.30;;;9.10;99.90;;;;;;4975353;28;20030;-76
2024/01/19 04:02:59;;;;;;;38.42;21.98;;;9.10;99.90;;;;;;4976021;28;20464;-76
2024/01/19 04:05:25;;;;;;;37.55;21.63;;;9.10;99.90;;;;;;4975970;28;20039;-76
2024/01/19 04:07:51;;;;;;;35.78;21.50;;;9.10;99.90;;;;;;4975984;28;20034;-76
2024/01/19 04:10:16;;;;;;;35.20;21.70;;;9.10;99.90;;;;;;4976327;28;20052;-76
2024/01/19 04:12:42;;;;;;;34.25;19.73;;;9.10;99.90;;;;;;4975534;28;20022;-76
2024/01/19 04:15:08;;;;;;;38.65;20.38;;;9.10;99.90;;;;;;4975106;28;20062;-76
2024/01/19 04:17:34;;;;;;;37.33;20.55;;;9.10;99.90;;;;;;4975085;28;20868;-77
2024/01/19 04:20:00;;;;;;;36.55;21.48;;;9.10;99.90;;;;;;4976654;28;20119;-76
2024/01/19 04:22:25;;;;;;;39.70;21.77;;;9.10;99.90;;;;;;4994448;28;20084;-77
2024/01/19 04:24:51;;;;;;;42.03;21.25;;;9.10;99.90;;;;;;4980231;28;20058;-76
2024/01/19 04:27:17;;;;;;;35.65;20.58;;;9.10;99.90;;;;;;4976177;28;20035;-78
2024/01/19 04:29:42;;;;;;;41.97;21.73;;;9.10;99.90;;;;;;4974860;28;20045;-76
2024/01/19 04:32:08;;;;;;;38.83;21.42;;;9.10;99.90;;;;;;4975154;28;20097;-76
2024/01/19 04:34:34;;;;;;;37.35;21.45;;;9.10;99.90;;;;;;4975176;28;20136;-76
2024/01/19 04:37:00;;;;;;;34.60;19.98;;;9.10;99.90;;;;;;4975090;28;20027;-76
2024/01/19 04:39:25;;;;;;;39.30;21.55;;;9.10;99.90;;;;;;4957283;28;20035;-76
2024/01/19 04:41:51;;;;;;;38.17;20.77;;;9.10;99.90;;;;;;4989920;28;20080;-77
2024/01/19 04:44:16;;;;;;;31.52;17.48;;;9.00;99.90;;;;;;4976730;28;20034;-76
2024/01/19 04:46:42;;;;;;;35.28;19.20;;;9.00;99.90;;;;;;4974925;28;20039;-76
2024/01/19 04:49:08;;;;;;;39.30;21.25;;;9.00;99.90;;;;;;4957182;28;20521;-77
2024/01/19 04:51:34;;;;;;;36.80;20.38;;;8.90;99.90;;;;;;4957418;28;20097;-77
2024/01/19 04:53:59;;;;;;;40.85;22.98;;;8.90;99.90;;;;;;4974824;28;20035;-77
2024/01/19 04:56:25;;;;;;;40.88;23.63;;;8.80;99.90;;;;;;4977707;28;20037;-77
2024/01/19 04:58:51;;;;;;;41.22;23.10;;;8.80;99.90;;;;;;4979030;28;20034;-76
2024/01/19 05:01:17;;;;;;;41.28;22.75;;;8.90;99.90;;;;;;4974751;28;20046;-77
2024/01/19 05:03:43;;;;;;;43.90;23.42;;;8.90;99.90;;;;;;4974197;28;20113;-77
2024/01/19 05:06:12;;;;;;;42.08;22.52;;;8.90;99.90;;;;;;4974747;28;20069;-76
2024/01/19 05:08:38;;;;;;;41.42;23.30;;;8.90;99.90;;;;;;4956897;28;20137;-76
2024/01/19 05:11:04;;;;;;;42.17;23.48;;;9.00;99.90;;;;;;4978403;28;20415;-76
2024/01/19 05:13:29;;;;;;;40.33;21.98;;;8.90;99.90;;;;;;4975161;28;20538;-76
2024/01/19 05:15:55;;;;;;;39.75;19.95;;;9.00;99.90;;;;;;4974407;28;20038;-76
2024/01/19 05:18:21;;;;;;;45.50;24.23;;;8.90;99.90;;;;;;4974363;28;20033;-76
2024/01/19 05:20:47;;;;;;;46.10;23.92;;;8.90;99.90;;;;;;4974127;28;20102;-76
2024/01/19 05:23:12;;;;;;;45.15;24.77;;;8.90;99.90;;;;;;4956847;28;20035;-76
2024/01/19 05:25:38;;;;;;;39.97;21.02;;;8.90;99.90;;;;;;4976627;28;20035;-76
2024/01/19 05:28:04;;;;;;;42.58;22.80;;;8.90;99.90;;;;;;4976380;28;20034;-75
2024/01/19 05:30:29;;;;;;;36.45;20.48;;;8.90;99.90;;;;;;4974326;28;20082;-75
2024/01/19 05:32:55;;;;;;;38.17;21.27;;;8.80;99.90;;;;;;4977942;28;20034;-76
2024/01/19 05:35:21;;;;;;;51.70;26.88;;;8.90;99.90;;;;;;4986772;28;20073;-76
2024/01/19 05:37:47;;;;;;;44.13;24.48;;;8.80;99.90;;;;;;4984019;28;20015;-76
2024/01/19 05:40:13;;;;;;;41.10;22.83;;;8.80;99.90;;;;;;4980299;28;20031;-75
2024/01/19 05:42:38;;;;;;;35.80;22.20;;;8.80;99.90;;;;;;4979006;28;20031;-76
2024/01/19 05:45:05;;;;;;;35.83;20.50;;;8.90;99.90;;;;;;4975649;28;20041;-76
2024/01/19 05:47:30;;;;;;;31.67;18.50;;;8.80;99.90;;;;;;4981793;28;20413;-76
2024/01/19 05:49:56;;;;;;;36.58;20.50;;;8.80;99.90;;;;;;4981777;28;20070;-76
2024/01/19 05:52:22;;;;;;;34.35;20.73;;;8.70;99.90;;;;;;4988464;28;20501;-76
2024/01/19 05:54:48;;;;;;;35.10;21.33;;;8.70;99.90;;;;;;4977396;28;20108;-76
2024/01/19 05:57:13;;;;;;;36.58;21.00;;;8.70;99.90;;;;;;4978794;28;20049;-76
2024/01/19 05:59:40;;;;;;;37.17;20.83;;;8.70;99.90;;;;;;4967072;28;20051;-76
2024/01/19 06:02:06;;;;;;;38.80;22.40;;;8.80;99.90;;;;;;4984381;28;20334;-76
2024/01/19 06:04:37;;;;;;;39.70;22.05;;;8.80;99.90;;;;;;4977408;28;20039;-76
2024/01/19 06:07:03;;;;;;;38.53;21.20;;;8.80;99.90;;;;;;4971302;28;20542;-76
2024/01/19 06:09:29;;;;;;;35.13;19.50;;;8.80;99.90;;;;;;4958567;28;20381;-76
2024/01/19 06:11:55;;;;;;;36.47;20.70;;;8.80;99.90;;;;;;4984754;28;20025;-76
2024/01/19 06:14:21;;;;;;;36.38;19.35;;;8.80;99.90;;;;;;4974741;28;20385;-77
2024/01/19 06:16:46;;;;;;;39.20;20.90;;;8.80;99.90;;;;;;4980945;28;20038;-76
2024/01/19 06:19:12;;;;;;;41.00;21.95;;;8.70;99.90;;;;;;4979958;28;20022;-76
2024/01/19 06:21:38;;;;;;;37.92;20.88;;;8.80;99.90;;;;;;4980571;28;20061;-76
2024/01/19 06:24:04;;;;;;;36.97;20.88;;;8.80;99.90;;;;;;4972953;28;20369;-77
2024/01/19 06:26:32;;;;;;;52.67;28.20;;;8.90;99.90;;;;;;4958829;28;20031;-76
2024/01/19 06:29:01;;;;;;;50.28;26.17;;;8.90;99.90;;;;;;4955608;28;20122;-78
2024/01/19 06:31:26;;;;;;;37.92;20.85;;;8.90;99.90;;;;;;4972870;28;20031;-78
2024/01/19 06:33:52;;;;;;;39.90;21.20;;;8.90;99.90;;;;;;4976984;28;20082;-78
2024/01/19 06:36:18;;;;;;;43.03;24.40;;;8.80;99.90;;;;;;4972588;28;20132;-78
2024/01/19 06:38:43;;;;;;;41.65;22.17;;;8.80;99.90;;;;;;4972769;28;20042;-78
2024/01/19 06:41:09;;;;;;;39.45;21.38;;;8.90;99.90;;;;;;4970898;28;20038;-78
2024/01/19 06:43:35;;;;;;;39.63;20.45;;;8.90;99.90;;;;;;4965760;28;20034;-79
2024/01/19 06:46:00;;;;;;;45.25;22.58;;;8.90;99.90;;;;;;4979871;28;20034;-77
2024/01/19 06:48:26;;;;;;;42.28;22.00;;;8.90;99.90;;;;;;4973194;28;20027;-78
2024/01/19 06:50:52;;;;;;;37.90;21.23;;;9.00;99.90;;;;;;4975724;28;20042;-80
2024/01/19 06:53:17;;;;;;;38.22;21.60;;;9.00;99.90;;;;;;4984329;28;20031;-83
2024/01/19 06:55:43;;;;;;;41.42;22.05;;;9.00;99.90;;;;;;4967537;28;20365;-81
2024/01/19 06:58:09;;;;;;;43.03;20.80;;;9.10;99.90;;;;;;4959518;28;20480;-80
2024/01/19 07:00:34;;;;;;;38.85;20.60;;;9.20;99.90;;;;;;4980773;28;20030;-78
2024/01/19 07:03:00;;;;;;;42.00;23.23;;;9.20;99.90;;;;;;4980379;28;20074;-78
2024/01/19 07:05:26;;;;;;;44.65;21.83;;;9.30;99.90;;;;;;4977035;28;20031;-78
2024/01/19 07:07:52;;;;;;;43.38;23.33;;;9.30;99.90;;;;;;4981104;28;20027;-79
2024/01/19 07:10:19;;;;;;;40.28;22.33;;;9.30;99.90;;;;;;4976336;28;20468;-79
2024/01/19 07:12:44;;;;;;;39.17;20.90;;;9.30;99.90;;;;;;4977625;28;20027;-79
2024/01/19 07:15:10;;;;;;;41.60;22.17;;;9.20;99.90;;;;;;4987454;28;20036;-82
2024/01/19 07:17:36;;;;;;;43.08;21.70;;;9.30;99.90;;;;;;4979440;28;20054;-81
2024/01/19 07:20:04;;;;;;;42.53;23.58;;;9.30;99.90;;;;;;4960435;28;20034;-81
2024/01/19 07:22:30;;;;;;;40.58;21.70;;;9.30;99.90;;;;;;4977230;28;20041;-79
2024/01/19 07:24:56;;;;;;;39.80;21.83;;;9.30;99.90;;;;;;4958308;28;20035;-80
2024/01/19 07:27:22;;;;;;;43.88;22.90;;;9.30;99.90;;;;;;4974487;28;20059;-80
2024/01/19 07:29:47;;;;;;;41.65;23.52;;;9.30;99.90;;;;;;4976196;28;20030;-80
2024/01/19 07:32:13;;;;;;;44.65;24.13;;;9.40;99.90;;;;;;4977764;28;20035;-80
2024/01/19 07:34:39;;;;;;;40.17;21.83;;;9.40;99.90;;;;;;4976505;28;20028;-80
2024/01/19 07:37:05;;;;;;;40.47;22.30;;;9.40;99.90;;;;;;4989486;28;20027;-79
2024/01/19 07:39:31;;;;;;;39.97;23.30;;;9.40;99.90;;;;;;4958244;28;20500;-79
2024/01/19 07:41:56;;;;;;;37.28;20.63;;;9.40;99.90;;;;;;4975874;28;20043;-75
2024/01/19 07:44:22;;;;;;;39.97;23.48;;;9.40;99.90;;;;;;4985475;28;20389;-76
2024/01/19 07:46:48;;;;;;;37.80;21.13;;;9.40;99.90;;;;;;4986282;28;20217;-77
2024/01/19 07:49:20;;;;;;;41.95;20.65;;;9.30;99.90;;;;;;4976301;28;20023;-77
2024/01/19 07:51:47;;;;;;;41.08;22.42;;;9.40;99.90;;;;;;4975376;28;20047;-77
2024/01/19 07:54:12;;;;;;;35.38;20.77;;;9.40;99.90;;;;;;4976614;28;20034;-77
2024/01/19 07:56:38;;;;;;;38.58;21.55;;;9.40;99.90;;;;;;4975217;28;20035;-76
2024/01/19 07:59:04;;;;;;;27.63;15.27;;;9.40;99.90;;;;;;4958264;28;20366;-80
2024/01/19 08:01:30;;;;;;;34.25;20.17;;;9.50;99.90;;;;;;4974125;28;20061;-80
2024/01/19 08:03:55;;;;;;;38.42;21.60;;;9.60;99.90;;;;;;4975028;28;20116;-79
2024/01/19 08:06:21;;;;;;;34.53;19.92;;;9.70;99.90;;;;;;4974897;28;20393;-79
2024/01/19 08:08:47;;;;;;;39.88;20.98;;;9.70;99.90;;;;;;4957240;28;20038;-76
2024/01/19 08:11:12;;;;;;;36.00;20.80;;;9.70;99.90;;;;;;4975087;28;20035;-77
2024/01/19 08:13:39;;;;;;;33.53;20.27;;;9.60;99.90;;;;;;4974958;28;20033;-77
2024/01/19 08:16:07;;;;;;;33.17;19.30;;;9.70;99.90;;;;;;4971105;28;20618;-77
2024/01/19 08:18:34;;;;;;;34.75;20.30;;;9.70;99.90;;;;;;4971741;28;20058;-76
2024/01/19 08:21:03;;;;;;;37.75;20.42;;;9.70;99.90;;;;;;4969105;28;20193;-77
2024/01/19 08:23:32;;;;;;;33.38;19.00;;;9.60;99.90;;;;;;4973735;28;20027;-78
2024/01/19 08:25:57;;;;;;;34.75;19.95;;;9.60;99.90;;;;;;4973954;28;20042;-77
2024/01/19 08:28:23;;;;;;;41.03;22.63;;;9.60;99.90;;;;;;4974353;28;20034;-78
2024/01/19 08:30:49;;;;;;;34.72;19.77;;;9.60;99.90;;;;;;4973221;28;20031;-78
2024/01/19 08:33:15;;;;;;;30.75;17.35;;;9.60;99.90;;;;;;4970180;28;20425;-78
2024/01/19 08:35:40;;;;;;;32.50;19.70;;;9.60;99.90;;;;;;4975717;28;20023;-79
2024/01/19 08:38:06;;;;;;;30.50;18.13;;;9.60;99.90;;;;;;4974774;28;20122;-78
2024/01/19 08:40:32;;;;;;;33.83;19.17;;;9.60;99.90;;;;;;4974572;28;20026;-77
2024/01/19 08:42:58;;;;;;;33.95;19.67;;;9.60;99.90;;;;;;4956974;28;20078;-77
2024/01/19 08:45:24;;;;;;;44.25;24.40;;;9.60;99.90;;;;;;4977528;28;20026;-82
2024/01/19 08:47:50;;;;;;;27.33;17.08;;;9.60;99.90;;;;;;4976876;28;20031;-77
2024/01/19 08:50:16;;;;;;;34.75;20.20;;;9.50;99.90;;;;;;4957077;28;20096;-77
2024/01/19 08:52:42;;;;;;;31.38;19.17;;;9.50;99.90;;;;;;4974479;28;20088;-77
2024/01/19 08:55:08;;;;;;;34.70;21.38;;;9.50;99.90;;;;;;4973625;28;20030;-78
2024/01/19 08:57:34;;;;;;;29.85;18.35;;;9.50;99.90;;;;;;4974496;28;20023;-78
2024/01/19 09:00:01;;;;;;;33.30;18.95;;;9.50;99.90;;;;;;4956672;28;20485;-79
2024/01/19 09:02:26;;;;;;;25.23;16.33;;;9.50;99.90;;;;;;4973520;28;20286;-78
2024/01/19 09:04:52;;;;;;;33.88;17.65;;;9.50;99.90;;;;;;4972765;28;20065;-78
2024/01/19 09:07:18;;;;;;;27.70;17.27;;;9.50;99.90;;;;;;4966004;28;20039;-77
2024/01/19 09:09:44;;;;;;;27.65;16.15;;;9.50;99.90;;;;;;4968407;28;20039;-78
2024/01/19 09:12:10;;;;;;;26.40;16.10;;;9.50;99.90;;;;;;4974255;28;20099;-78
2024/01/19 09:14:36;;;;;;;22.95;14.13;;;9.40;99.90;;;;;;4973215;28;20106;-79
2024/01/19 09:17:02;;;;;;;14.63;10.05;;;9.50;99.90;;;;;;4955689;28;20163;-79
2024/01/19 09:19:28;;;;;;;10.30;7.38;;;9.40;99.90;;;;;;4972163;28;20031;-79
2024/01/19 09:21:53;;;;;;;4.38;3.40;;;9.40;99.90;;;;;;4970819;28;20116;-78
2024/01/19 09:24:19;;;;;;;5.35;2.00;;;9.30;99.90;;;;;;4970744;28;20043;-79
2024/01/19 09:26:45;;;;;;;1.85;1.17;;;9.30;99.90;;;;;;4970970;28;20122;-79
2024/01/19 09:29:10;;;;;;;5.65;1.48;;;9.30;99.90;;;;;;4973519;28;20405;-78
2024/01/19 09:31:43;;;;;;;1.10;0.68;;;9.10;99.90;;;;;;4971981;28;20065;-78
2024/01/19 09:34:10;;;;;;;0.75;0.40;;;9.10;99.90;;;;;;4972047;28;20023;-79
2024/01/19 09:36:35;;;;;;;2.72;0.30;;;9.00;99.90;;;;;;4954957;28;20504;-79
2024/01/19 09:39:01;;;;;;;0.55;0.28;;;8.90;99.90;;;;;;4973514;28;20039;-79
2024/01/19 09:41:46;;;;;;;0.52;0.40;;;8.80;99.90;;;;;;4966710;28;20388;-79
2024/01/19 09:44:13;;;;;;;0.65;0.30;;;8.80;99.90;;;;;;4972114;28;20125;-78
2024/01/19 09:46:51;;;;;;;0.80;0.30;;;8.70;99.90;;;;;;4971869;28;20511;-78
2024/01/19 09:49:35;;;;;;;0.20;0.20;;;8.80;99.90;;;;;;4966862;28;20412;-77
2024/01/19 09:52:31;;;;;;;0.22;0.20;;;8.70;99.90;;;;;;4972131;28;20043;-79
2024/01/19 09:54:57;;;;;;;0.52;0.20;;;8.70;99.90;;;;;;4956293;28;20114;-78
2024/01/19 09:57:22;;;;;;;0.70;0.28;;;8.60;99.90;;;;;;4972747;28;20031;-78
2024/01/19 09:59:48;;;;;;;0.25;0.25;;;8.60;99.90;;;;;;4979178;28;20038;-78
2024/01/19 10:02:18;;;;;;;0.13;0.13;;;8.60;99.90;;;;;;4964908;28;20084;-78
2024/01/19 10:04:43;;;;;;;0.30;0.20;;;8.60;99.90;;;;;;4956011;28;20053;-80
2024/01/19 10:07:10;;;;;;;0.90;0.35;;;8.60;99.90;;;;;;4976415;28;20039;-79
2024/01/19 10:09:36;;;;;;;1.13;0.40;;;8.70;99.90;;;;;;4983572;28;20081;-82
2024/01/19 10:12:06;;;;;;;0.50;0.25;;;8.70;99.90;;;;;;4956478;28;20035;-81
2024/01/19 10:14:32;;;;;;;0.28;0.28;;;8.70;99.90;;;;;;4955532;28;20062;-80
2024/01/19 10:16:58;;;;;;;0.30;0.20;;;8.70;99.90;;;;;;4951154;28;20544;-80
2024/01/19 10:19:26;;;;;;;1.77;0.40;;;8.70;99.90;;;;;;4961435;28;20059;-80
2024/01/19 10:21:52;;;;;;;0.43;0.28;;;8.70;99.90;;;;;;4963820;28;20035;-82
2024/01/19 10:24:19;;;;;;;0.15;0.15;;;8.70;99.80;;;;;;4962367;28;20385;-82
2024/01/19 10:26:57;;;;;;;0.50;0.30;;;8.70;99.20;;;;;;4953605;28;20404;-80
2024/01/19 10:29:23;;;;;;;0.20;0.20;;;8.60;98.50;;;;;;4958835;28;20062;-81
2024/01/19 10:31:51;;;;;;;0.20;0.20;;;8.50;98.40;;;;;;4957767;28;20484;-80
2024/01/19 10:34:26;;;;;;;0.20;0.20;;;8.50;98.40;;;;;;4967640;28;20022;-80
2024/01/19 10:36:52;;;;;;;0.20;0.20;;;8.50;98.50;;;;;;4977853;28;20030;-80
2024/01/19 10:39:23;;;;;;;0.70;0.30;;;8.50;98.40;;;;;;4958515;28;20050;-78
2024/01/19 10:41:49;;;;;;;;;;;8.50;98.50;;;;;;4985617;28;20041;-78
2024/01/19 10:44:17;;;;;;;2.28;0.30;;;8.40;98.30;;;;;;4976411;28;19917;-78
2024/01/19 10:46:43;;;;;;;0.47;0.40;;;8.30;97.70;;;;;;4959173;28;20058;-79
2024/01/19 10:49:10;;;;;;;0.80;0.22;;;8.20;97.80;;;;;;4984381;28;20050;-79
2024/01/19 10:51:44;;;;;;;0.77;0.20;;;8.10;97.70;;;;;;4979583;28;20042;-78
2024/01/19 10:54:23;;;;;;;2.08;0.20;;;8.10;97.70;;;;;;4948193;28;20062;-79
2024/01/19 10:56:50;;;;;;;0.20;0.20;;;8.00;97.50;;;;;;4955194;28;20077;-79
2024/01/19 10:59:16;;;;;;;0.20;0.20;;;8.00;97.50;;;;;;4988252;28;20593;-79
2024/01/19 11:01:42;;;;;;;0.55;0.20;;;7.90;97.40;;;;;;4980329;28;20038;-79
2024/01/19 11:04:09;;;;;;;0.20;0.20;;;7.90;97.60;;;;;;4982608;28;20022;-80
2024/01/19 11:06:36;;;;;;;0.30;0.20;;;7.90;97.70;;;;;;4988708;28;20061;-79
2024/01/19 11:09:05;;;;;;;0.17;0.17;;;7.90;97.80;;;;;;4990410;28;20069;-79
2024/01/19 11:11:33;;;;;;;0.20;0.20;;;8.00;97.90;;;;;;4978622;28;20031;-79
2024/01/19 11:14:00;;;;;;;0.43;0.30;;;8.10;97.80;;;;;;4982162;28;20022;-78
2024/01/19 11:16:32;;;;;;;0.90;0.20;;;8.10;97.60;;;;;;4957230;28;20023;-79
2024/01/19 11:18:59;;;;;;;0.55;0.20;;;8.10;97.50;;;;;;4957127;28;20026;-79
2024/01/19 11:21:25;;;;;;;5.85;0.57;;;8.20;97.30;;;;;;4988033;28;20561;-79
2024/01/19 11:23:52;;;;;;;0.57;0.15;;;8.20;97.20;;;;;;4976389;28;20034;-79
2024/01/19 11:26:51;;;;;;;3.47;0.50;;;8.10;96.70;;;;;;4963647;28;20097;-79
2024/01/19 11:29:28;;;;;;;0.88;0.15;;;8.10;96.40;;;;;;4949173;28;20308;-80
2024/01/19 11:31:54;;;;;;;1.67;0.55;;;8.20;96.80;;;;;;4970131;28;20062;-80
2024/01/19 11:34:39;;;;;;;1.50;0.43;;;8.30;96.80;;;;;;4968832;28;20023;-80
2024/01/19 11:37:04;;;;;;;0.95;0.30;;;8.60;96.90;;;;;;4957686;28;20091;-80
2024/01/19 11:39:43;;;;;;;1.08;0.30;;;8.60;96.20;;;;;;4980273;28;20343;-79
2024/01/19 11:42:29;;;;;;;0.20;0.20;;;8.60;96.00;;;;;;4977627;28;20039;-80
2024/01/19 11:44:55;;;;;;;1.05;0.10;;;8.60;95.60;;;;;;4985081;28;20023;-79
2024/01/19 11:47:36;;;;;;;0.47;0.20;;;8.60;95.50;;;;;;4985027;28;20052;-79
2024/01/19 11:50:04;;;;;;;0.20;0.20;;;8.50;95.30;;;;;;4988325;28;20369;-79
2024/01/19 11:52:30;;;;;;;0.85;0.20;;;8.40;95.50;;;;;;4986209;28;20043;-79
2024/01/19 11:54:56;;;;;;;0.68;0.25;;;8.50;95.40;;;;;;4983150;28;20097;-79
2024/01/19 11:57:24;;;;;;;1.55;0.20;;;8.50;95.50;;;;;;4978561;28;20073;-79
2024/01/19 11:59:51;;;;;;;3.03;0.40;;;8.40;95.60;;;;;;4957401;28;20037;-79
2024/01/19 12:02:27;;;;;;;0.55;0.28;;;8.30;95.60;;;;;;4972814;23;20065;-79
2024/01/19 12:04:55;;;;;;;0.70;0.30;;;8.30;95.60;;;;;;4935475;29;20043;-79
2024/01/19 12:07:24;;;;;;;1.35;0.10;;;8.30;95.60;;;;;;4937646;29;20019;-79
2024/01/19 12:10:22;;;;;;;0.30;0.30;;;8.20;95.50;;;;;;4940925;29;20039;-78
2024/01/19 12:12:49;;;;;;;0.38;0.20;;;8.20;95.50;;;;;;4903313;29;20064;-78
2024/01/19 12:15:16;;;;;;;1.38;0.45;;;8.10;95.70;;;;;;4939221;29;20106;-78
2024/01/19 12:17:43;;;;;;;1.38;0.40;;;8.10;96.00;;;;;;4917642;29;20548;-78
2024/01/19 12:20:15;;;;;;;0.30;0.30;;;8.00;95.90;;;;;;4933092;29;20062;-79
2024/01/19 12:22:42;;;;;;;0.73;0.50;;;8.00;96.00;;;;;;4939997;29;20059;-81
2024/01/19 12:25:16;;;;;;;0.52;0.30;;;7.90;96.00;;;;;;4936360;29;20083;-80
2024/01/19 12:27:41;;;;;;;0.90;0.40;;;8.00;96.00;;;;;;4934991;29;20028;-81
2024/01/19 12:30:15;;;;;;;0.55;0.20;;;8.00;96.20;;;;;;4937371;29;20043;-81
2024/01/19 12:32:41;;;;;;;5.88;0.70;;;8.10;96.20;;;;;;4937602;29;20023;-80
2024/01/19 12:35:08;;;;;;;1.25;0.50;;;8.10;96.10;;;;;;4936759;29;20038;-80
2024/01/19 12:37:33;;;;;;;0.85;0.43;;;8.20;96.20;;;;;;4947641;29;20032;-81
2024/01/19 12:40:12;;;;;;;2.55;0.65;;;8.20;95.80;;;;;;4952659;29;20488;-80
2024/01/19 12:42:38;;;;;;;6.32;0.50;;;8.20;95.80;;;;;;4946470;29;20367;-80
2024/01/19 12:45:04;;;;;;;0.55;0.30;;;8.20;95.90;;;;;;4942799;29;20042;-79
2024/01/19 12:47:30;;;;;;;0.95;0.47;;;8.20;95.80;;;;;;4938302;29;20091;-79
2024/01/19 12:49:57;;;;;;;2.53;0.63;;;8.20;95.60;;;;;;4934321;29;20028;-78
2024/01/19 12:52:24;;;;;;;2.00;0.43;;;8.20;95.50;;;;;;4918120;29;20038;-79
2024/01/19 12:54:50;;;;;;;1.73;0.60;;;8.00;95.40;;;;;;4934474;29;20035;-79
2024/01/19 12:57:20;;;;;;;0.60;0.20;;;8.00;95.60;;;;;;4936350;29;20030;-79
2024/01/19 13:00:05;;;;;;;1.08;0.20;;;8.10;95.80;;;;;;4940314;29;20126;-78
2024/01/19 13:02:30;;;;;;;1.45;0.40;;;8.10;95.80;;;;;;4938934;29;20521;-79
2024/01/19 13:04:56;;;;;;;1.58;0.30;;;8.10;95.60;;;;;;4937173;29;20054;-80
2024/01/19 13:07:23;;;;;;;2.20;0.40;;;8.20;95.70;;;;;;4934057;29;20038;-82
2024/01/19 13:10:03;;;;;;;3.92;0.40;;;8.10;95.70;;;;;;4920318;29;20039;-81
2024/01/19 13:12:29;;;;;;;0.85;0.50;;;8.10;95.40;;;;;;4917607;29;20023;-81
2024/01/19 13:15:10;;;;;;;0.63;0.40;;;8.10;95.40;;;;;;4940461;29;20374;-81
2024/01/19 13:17:38;;;;;;;2.72;0.52;;;8.10;95.40;;;;;;4941313;29;20509;-79
2024/01/19 13:20:06;;;;;;;1.33;0.40;;;8.10;95.30;;;;;;4936109;29;20135;-79
2024/01/19 13:22:32;;;;;;;1.05;0.30;;;8.00;95.40;;;;;;4947561;29;20457;-79
2024/01/19 13:24:58;;;;;;;0.60;0.30;;;7.90;95.70;;;;;;4939865;29;20054;-82
2024/01/19 13:27:23;;;;;;;1.55;0.40;;;7.60;96.10;;;;;;4932110;29;20027;-81
2024/01/19 13:29:49;;;;;;;1.70;0.57;;;7.70;95.90;;;;;;4941306;29;20049;-82
2024/01/19 13:32:15;;;;;;;1.65;0.55;;;7.70;95.90;;;;;;4938885;29;20086;-82
2024/01/19 13:34:41;;;;;;;1.90;0.47;;;7.70;95.70;;;;;;4936289;29;20032;-82
2024/01/19 13:37:07;;;;;;;2.45;0.50;;;7.60;96.00;;;;;;4938456;29;20019;-82
2024/01/19 13:39:33;;;;;;;1.05;0.45;;;7.60;95.80;;;;;;4913329;29;20454;-82
2024/01/19 13:41:59;;;;;;;2.78;0.47;;;7.60;95.70;;;;;;4934872;29;20028;-82
2024/01/19 13:44:25;;;;;;;1.63;0.50;;;7.60;96.10;;;;;;4932005;29;20027;-82
2024/01/19 13:46:50;;;;;;;1.38;0.40;;;7.70;95.80;;;;;;4934864;29;20091;-82
2024/01/19 13:49:16;;;;;;;3.22;0.60;;;7.70;95.80;;;;;;4934147;29;20028;-82
2024/01/19 13:51:42;;;;;;;1.83;0.57;;;7.80;95.80;;;;;;4936102;29;20016;-84
2024/01/19 13:54:07;;;;;;;0.80;0.38;;;7.80;95.60;;;;;;4939570;29;20040;-82
2024/01/19 13:56:33;;;;;;;0.60;0.38;;;7.90;95.40;;;;;;4941502;29;20023;-82
2024/01/19 13:58:59;;;;;;;2.38;0.40;;;8.00;95.20;;;;;;4937708;29;20035;-82
2024/01/19 14:01:25;;;;;;;1.48;0.57;;;8.00;94.90;;;;;;4937936;29;20079;-79
2024/01/19 14:03:52;;;;;;;2.67;0.50;;;8.00;94.60;;;;;;4934225;29;20513;-78
2024/01/19 14:06:18;;;;;;;0.68;0.40;;;8.00;94.30;;;;;;4946609;29;20051;-80
2024/01/19 14:08:46;;;;;;;1.58;0.30;;;8.00;94.10;;;;;;4944010;29;20474;-79
2024/01/19 14:11:13;;;;;;;0.85;0.30;;;8.10;93.90;;;;;;4953758;29;20038;-76
2024/01/19 14:13:41;;;;;;;2.47;0.55;;;8.10;93.80;;;;;;4940293;29;20110;-76
2024/01/19 14:16:06;;;;;;;3.97;0.57;;;8.10;93.70;;;;;;4938246;29;20042;-75
2024/01/19 14:18:32;;;;;;;2.85;0.40;;;8.20;93.50;;;;;;4940776;29;20019;-75
2024/01/19 14:20:58;;;;;;;1.90;0.43;;;8.20;93.40;;;;;;4954870;29;20117;-75
2024/01/19 14:23:24;;;;;;;3.47;0.60;;;8.20;93.10;;;;;;4952860;29;20049;-75